Pasadena 2N

39° 08' 31"N, 76° 30' 27"W, Elevation 43 ft.
Eastern Time

Hourly observations for the last 72 hours

Date Time Temperature (°F) Humi-
dity

(%)
Wind
(mph)
Pressure Rain (in) Sun
(W/m2)
ET
(in)
Air Dew 6 Hour 1 Hr 3 Hr 6 Hr Day
Alt
(in)
Sea
Level

(mb)
Max Min
18 22:00 66.5 58.7 76 S 2 G 14 29.83 1010.2 0.00 0 0.124
18 21:00 69.1 59.3 71 S 2 G 18 29.81 1009.5 0.00 0 0.122
18 20:00 69.9 55.4 78.5 69.9 60 SSE 6 G 15 29.79 1008.9 0.00 0 0.119
18 19:00 73.3 55.7 54 SSE 5 G 22 29.80 1009.1 0.00 42 0.115
18 18:00 75.5 62.0 63 S 7 G 16 29.81 1009.7 0.00 95 0.106
18 17:00 77.6 62.6 60 SSE 5 G 22 29.84 1010.4 0.00 434 0.093
18 16:00 75.3 62.7 65 SSE 5 G 14 29.86 1011.2 0.00 547 0.084
18 15:00 73.8 62.2 67 E 2 G 9 29.89 1012.2 0.00 232 0.070
18 14:00 71.4 61.1 71.4 55.9 70 NNW 1 G 5 29.92 1013.4 0.00 617 0.052
18 13:00 68.0 59.4 74 NNW 1 G 6 29.95 1014.2 0.00 838 0.034
18 12:00 67.7 58.4 72 WSW 2 G 6 29.97 1015.0 0.00 715 0.019
18 11:00 63.0 57.1 81 SE 0 G 6 29.99 1015.5 0.00 462 0.012
18 10:00 59.1 54.9 86 S 0 G 5 30.00 1015.8 0.00 193 0.008
18 09:00 57.0 53.5 88 ENE 0 G 3 30.00 1016.1 0.00 153 0.006
18 08:00 55.9 52.4 56.0 53.7 88 ENE 0 G 2 30.02 1016.8 0.00 53 0.005
18 07:00 55.1 51.3 87 ENE 1 G 2 30.02 1016.7 0.00 12 0.005
18 06:00 54.9 51.1 87 NE 0 G 7 30.01 1016.4 0.00 0 0.005
18 05:00 54.7 50.6 86 NE 1 G 6 30.02 1016.8 0.00 0 0.004
18 04:00 54.4 50.3 86 ESE 1 G 7 30.05 1017.7 0.00 0 0.003
18 03:00 54.1 49.7 85 NE 3 G 12 30.06 1018.0 0.00 0 0.002
18 02:00 53.7 49.0 56.6 53.4 84 ENE 1 G 9 30.09 1019.1 0.00 0 0.001
18 01:00 53.5 48.1 82 ENE 1 G 8 30.10 1019.5 0.00 0 0.000
18 00:00 53.8 48.1 81 ENE 4 G 14 30.10 1019.3 0.00 0 0.113
17 23:00 54.5 47.4 77 ENE 1 G 8 30.11 1019.7 0.00 0 0.112
17 22:00 55.0 46.9 74 ENE 3 G 8 30.11 1019.8 0.00 0 0.111
17 21:00 55.0 46.1 72 ENE 3 G 9 30.10 1019.5 0.00 0 0.110
17 20:00 56.6 46.2 66.3 56.6 68 SE 2 G 10 30.09 1018.9 0.00 0 0.109
17 19:00 59.7 46.7 62 ENE 0 G 7 30.08 1018.5 0.00 25 0.106
17 18:00 62.5 47.5 58 E 2 G 11 30.07 1018.4 0.00 100 0.098
17 17:00 65.5 48.4 54 E 2 G 14 30.08 1018.6 0.00 424 0.085
17 16:00 64.5 46.0 51 E 6 G 12 30.09 1019.1 0.00 455 0.073
17 15:00 65.2 50.5 59 NNE 3 G 10 30.10 1019.5 0.00 566 0.060
17 14:00 62.4 49.7 63.4 54.8 63 ENE 4 G 13 30.11 1019.7 0.00 780 0.046
17 13:00 62.7 49.1 61 NE 4 G 11 30.11 1019.7 0.00 635 0.030
17 12:00 60.4 48.6 65 NE 7 G 13 30.10 1019.4 0.00 735 0.019
17 11:00 58.8 47.5 66 ENE 4 G 11 30.11 1019.8 0.00 352 0.013
17 10:00 57.5 46.6 67 ENE 5 G 11 30.10 1019.2 0.00 98 0.010
17 09:00 56.7 45.5 66 NE 7 G 13 30.09 1019.0 0.00 114 0.007
17 08:00 54.8 45.2 54.8 47.8 70 ENE 4 G 9 30.07 1018.2 0.00 56 0.006
17 07:00 53.9 45.1 72 NE 2 G 6 30.05 1017.8 0.00 11 0.005
17 06:00 53.5 46.1 76 NE 2 G 8 30.03 1017.1 0.00 0 0.004
17 05:00 49.3 45.3 86 Calm 30.01 1016.4 0.00 0 0.004
17 04:00 48.2 43.0 82 Calm 29.98 1015.3 0.00 0 0.003
17 03:00 50.2 42.2 74 Calm 29.96 1014.7 0.00 0 0.002
17 02:00 52.8 43.7 58.8 52.4 71 SE 0 G 2 29.97 1015.0 0.00 0 0.001
17 01:00 52.9 45.2 75 SE 0 G 4 29.97 1015.0 0.00 0 0.000
17 00:00 54.6 46.5 74 S 1 G 5 29.98 1015.4 0.00 0 0.132
16 23:00 55.9 47.0 72 SE 0 G 1 29.99 1015.7 0.00 0 0.131
16 22:00 57.0 46.6 68 S 1 G 7 30.01 1016.2 0.00 0 0.130
16 21:00 55.7 45.3 68 SSE 0 G 1 30.02 1016.6 0.00 0 0.129
16 20:00 58.8 44.5 70.2 58.8 59 SE 0 G 3 30.01 1016.2 0.00 0 0.128
16 19:00 65.2 39.6 39 SSW 2 G 7 30.01 1016.2 0.00 21 0.126
16 18:00 68.3 39.6 35 W 2 G 7 30.01 1016.2 0.00 54 0.117
16 17:00 69.2 42.5 38 S 2 G 10 30.01 1016.5 0.00 489 0.102
16 16:00 68.4 39.7 35 S 3 G 11 30.04 1017.2 0.00 654 0.084
16 15:00 66.1 39.8 38 WNW 5 G 13 30.07 1018.3 0.00 772 0.064
16 14:00 64.6 38.4 64.6 47.0 38 W 6 G 15 30.10 1019.4 0.00 842 0.045
16 13:00 61.6 35.8 38 WSW 3 G 13 30.13 1020.2 0.00 698 0.031
16 12:00 58.7 36.9 44 WSW 2 G 12 30.14 1020.8 0.00 459 0.021
16 11:00 56.5 36.0 46 W 2 G 12 30.17 1021.6 0.00 367 0.014
16 10:00 53.3 38.0 56 WSW 3 G 10 30.16 1021.3 0.00 246 0.010
16 09:00 50.3 39.8 67 WNW 1 G 8 30.17 1021.8 0.00 120 0.007
16 08:00 47.0 37.7 47.0 39.8 70 W 1 G 7 30.17 1021.6 0.00 86 0.006
16 07:00 42.4 35.7 77 W 1 G 7 30.15 1020.9 0.00 18 0.006
16 06:00 43.3 35.6 74 W 2 G 10 30.12 1020.1 0.00 0 0.005
16 05:00 40.5 34.5 79 SW 0 G 5 30.09 1019.0 0.00 0 0.004
16 04:00 39.8 34.1 80 WSW 0 G 4 30.07 1018.4 0.00 0 0.003
16 03:00 40.5 34.2 78 W 0 G 4 30.05 1017.5 0.00 0 0.002
16 02:00 40.5 33.9 50.5 40.0 77 WSW 0 G 3 30.04 1017.4 0.00 0 0.001
16 01:00 41.1 33.5 74 SW 0 G 1 30.03 1016.9 0.00 0 0.000
16 00:00 43.7 33.5 67 WSW 0 G 1 30.01 1016.2 0.48 0 0.124
15 23:00 47.1 33.1 58 W 3 G 11 29.99 1015.5 0.48 0 0.122

Data generated by WxSolution Version 1.9.1.6, Build 2018.07.01.